Shale City, Illinois
Current Conditions -  °F | °C
As of 8:52 AM on Friday 24 Oct 2014 (Local Time) from KMLI Reporting Station
Haze Haze  
Wind Chill: 54°   Ceiling: 200
Heat Index: 54°   Visibility: 0.75mi
Dew Point: 53°   Wind: 6mph
Humidity: 97%   Direction: 170°S
Pressure: 30.07"   Gusts: NA
Location:  41.1928°N, 90.7165°W
Report Text: KMLI 241352Z 17005KT 3/4SM R09/5500VP6000FT BR OVC002 12/12 A3007 RMK AO2 SLP182 T01220117
Loading
Personal Weather Stations






























Interactive Weather Map
Tropical Storm Tracking
New forecast layout! Learn more

10-Day Weather Forecast

Advertisements
Track Severe Weather on mobile